sensor_id;sensor_type;location;lat;lon;timestamp;P1;durP1;ratioP1;P2;durP2;ratioP2
15871;SDS011;8035;51.962;7.162;2023-03-23T00:02:11;9.00;;;5.20;;
15871;SDS011;8035;51.962;7.162;2023-03-23T00:04:39;6.83;;;4.90;;
15871;SDS011;8035;51.962;7.162;2023-03-23T00:07:07;10.03;;;5.47;;
15871;SDS011;8035;51.962;7.162;2023-03-23T00:09:33;8.17;;;4.87;;
15871;SDS011;8035;51.962;7.162;2023-03-23T00:12:06;6.43;;;5.53;;
15871;SDS011;8035;51.962;7.162;2023-03-23T00:14:32;6.03;;;4.77;;
15871;SDS011;8035;51.962;7.162;2023-03-23T00:17:06;9.63;;;5.30;;
15871;SDS011;8035;51.962;7.162;2023-03-23T00:19:32;7.83;;;4.80;;
15871;SDS011;8035;51.962;7.162;2023-03-23T00:21:59;7.87;;;5.17;;
15871;SDS011;8035;51.962;7.162;2023-03-23T00:24:25;5.87;;;4.43;;
15871;SDS011;8035;51.962;7.162;2023-03-23T00:26:51;6.43;;;4.67;;
15871;SDS011;8035;51.962;7.162;2023-03-23T00:29:19;6.03;;;4.90;;
15871;SDS011;8035;51.962;7.162;2023-03-23T00:31:46;5.87;;;4.77;;
15871;SDS011;8035;51.962;7.162;2023-03-23T00:34:13;4.90;;;4.40;;
15871;SDS011;8035;51.962;7.162;2023-03-23T00:36:43;6.47;;;4.67;;
15871;SDS011;8035;51.962;7.162;2023-03-23T00:39:09;6.20;;;4.57;;
15871;SDS011;8035;51.962;7.162;2023-03-23T00:41:36;7.67;;;4.40;;
15871;SDS011;8035;51.962;7.162;2023-03-23T00:44:03;8.43;;;4.40;;
15871;SDS011;8035;51.962;7.162;2023-03-23T00:46:29;6.47;;;3.90;;
15871;SDS011;8035;51.962;7.162;2023-03-23T00:48:55;5.20;;;4.17;;
15871;SDS011;8035;51.962;7.162;2023-03-23T00:51:21;7.27;;;3.97;;
15871;SDS011;8035;51.962;7.162;2023-03-23T00:53:48;7.90;;;4.67;;
15871;SDS011;8035;51.962;7.162;2023-03-23T00:56:14;5.60;;;4.03;;
15871;SDS011;8035;51.962;7.162;2023-03-23T00:58:40;4.40;;;4.00;;
15871;SDS011;8035;51.962;7.162;2023-03-23T01:01:06;4.50;;;4.00;;
15871;SDS011;8035;51.962;7.162;2023-03-23T01:03:33;8.07;;;4.37;;
15871;SDS011;8035;51.962;7.162;2023-03-23T01:06:06;5.27;;;4.33;;
15871;SDS011;8035;51.962;7.162;2023-03-23T01:08:33;5.60;;;3.93;;
15871;SDS011;8035;51.962;7.162;2023-03-23T01:11:02;7.97;;;4.47;;
15871;SDS011;8035;51.962;7.162;2023-03-23T01:13:29;6.97;;;3.90;;
15871;SDS011;8035;51.962;7.162;2023-03-23T01:15:55;5.13;;;3.67;;
15871;SDS011;8035;51.962;7.162;2023-03-23T01:18:21;5.43;;;3.97;;
15871;SDS011;8035;51.962;7.162;2023-03-23T01:20:47;5.27;;;4.13;;
15871;SDS011;8035;51.962;7.162;2023-03-23T01:23:13;5.47;;;3.63;;
15871;SDS011;8035;51.962;7.162;2023-03-23T01:25:39;5.57;;;4.00;;
15871;SDS011;8035;51.962;7.162;2023-03-23T01:28:05;6.33;;;3.77;;
15871;SDS011;8035;51.962;7.162;2023-03-23T01:30:31;5.13;;;4.10;;
15871;SDS011;8035;51.962;7.162;2023-03-23T01:32:57;4.90;;;3.53;;
15871;SDS011;8035;51.962;7.162;2023-03-23T01:35:23;5.27;;;3.97;;
15871;SDS011;8035;51.962;7.162;2023-03-23T01:37:49;4.53;;;3.70;;
15871;SDS011;8035;51.962;7.162;2023-03-23T01:40:16;6.57;;;4.07;;
15871;SDS011;8035;51.962;7.162;2023-03-23T01:42:42;6.20;;;3.97;;
15871;SDS011;8035;51.962;7.162;2023-03-23T01:45:22;7.13;;;4.10;;
15871;SDS011;8035;51.962;7.162;2023-03-23T01:47:49;6.77;;;2.87;;
15871;SDS011;8035;51.962;7.162;2023-03-23T01:50:17;4.87;;;3.43;;
15871;SDS011;8035;51.962;7.162;2023-03-23T01:52:43;4.17;;;3.63;;
15871;SDS011;8035;51.962;7.162;2023-03-23T01:55:10;7.10;;;3.97;;
15871;SDS011;8035;51.962;7.162;2023-03-23T01:57:36;5.07;;;3.90;;
15871;SDS011;8035;51.962;7.162;2023-03-23T02:00:04;5.63;;;3.63;;
15871;SDS011;8035;51.962;7.162;2023-03-23T02:02:39;6.53;;;3.73;;
15871;SDS011;8035;51.962;7.162;2023-03-23T02:05:08;6.73;;;3.40;;
15871;SDS011;8035;51.962;7.162;2023-03-23T02:07:36;5.90;;;4.47;;
15871;SDS011;8035;51.962;7.162;2023-03-23T02:10:02;5.93;;;4.23;;
15871;SDS011;8035;51.962;7.162;2023-03-23T02:12:28;4.30;;;3.17;;
15871;SDS011;8035;51.962;7.162;2023-03-23T02:14:54;4.83;;;3.23;;
15871;SDS011;8035;51.962;7.162;2023-03-23T02:17:24;6.40;;;3.33;;
15871;SDS011;8035;51.962;7.162;2023-03-23T02:33:05;7.67;;;3.70;;
15871;SDS011;8035;51.962;7.162;2023-03-23T02:35:44;7.23;;;3.77;;
15871;SDS011;8035;51.962;7.162;2023-03-23T02:38:15;3.77;;;3.03;;
15871;SDS011;8035;51.962;7.162;2023-03-23T02:40:43;4.67;;;3.33;;
15871;SDS011;8035;51.962;7.162;2023-03-23T02:43:14;3.70;;;3.23;;
15871;SDS011;8035;51.962;7.162;2023-03-23T02:45:41;4.60;;;3.40;;
15871;SDS011;8035;51.962;7.162;2023-03-23T02:48:08;4.63;;;3.73;;
15871;SDS011;8035;51.962;7.162;2023-03-23T02:50:35;5.83;;;3.43;;
15871;SDS011;8035;51.962;7.162;2023-03-23T02:53:02;4.47;;;3.60;;
15871;SDS011;8035;51.962;7.162;2023-03-23T02:55:30;3.90;;;3.00;;
15871;SDS011;8035;51.962;7.162;2023-03-23T02:57:57;8.83;;;3.93;;
15871;SDS011;8035;51.962;7.162;2023-03-23T03:00:26;5.80;;;3.63;;
15871;SDS011;8035;51.962;7.162;2023-03-23T03:02:53;4.30;;;3.20;;
15871;SDS011;8035;51.962;7.162;2023-03-23T03:10:17;5.03;;;3.40;;
15871;SDS011;8035;51.962;7.162;2023-03-23T03:12:49;3.90;;;3.50;;
15871;SDS011;8035;51.962;7.162;2023-03-23T03:15:24;4.13;;;3.63;;
15871;SDS011;8035;51.962;7.162;2023-03-23T03:18:01;4.97;;;3.40;;
15871;SDS011;8035;51.962;7.162;2023-03-23T03:20:29;6.50;;;3.73;;
15871;SDS011;8035;51.962;7.162;2023-03-23T03:22:56;4.67;;;3.80;;
15871;SDS011;8035;51.962;7.162;2023-03-23T03:25:23;5.63;;;3.80;;
15871;SDS011;8035;51.962;7.162;2023-03-23T03:27:50;5.83;;;3.57;;
15871;SDS011;8035;51.962;7.162;2023-03-23T03:30:17;6.03;;;3.40;;
15871;SDS011;8035;51.962;7.162;2023-03-23T03:32:48;6.10;;;3.40;;
15871;SDS011;8035;51.962;7.162;2023-03-23T03:35:16;5.27;;;3.77;;
15871;SDS011;8035;51.962;7.162;2023-03-23T03:37:42;5.07;;;3.70;;
15871;SDS011;8035;51.962;7.162;2023-03-23T03:40:10;5.67;;;3.23;;
15871;SDS011;8035;51.962;7.162;2023-03-23T03:42:40;4.73;;;3.43;;
15871;SDS011;8035;51.962;7.162;2023-03-23T03:45:07;4.10;;;2.97;;
15871;SDS011;8035;51.962;7.162;2023-03-23T03:47:33;4.30;;;3.90;;
15871;SDS011;8035;51.962;7.162;2023-03-23T03:49:59;5.03;;;3.30;;
15871;SDS011;8035;51.962;7.162;2023-03-23T03:52:25;5.20;;;3.50;;
15871;SDS011;8035;51.962;7.162;2023-03-23T03:54:52;5.07;;;3.20;;
15871;SDS011;8035;51.962;7.162;2023-03-23T03:57:18;5.37;;;3.33;;
15871;SDS011;8035;51.962;7.162;2023-03-23T03:59:44;6.53;;;3.20;;
15871;SDS011;8035;51.962;7.162;2023-03-23T04:02:11;4.40;;;3.20;;
15871;SDS011;8035;51.962;7.162;2023-03-23T04:04:39;5.17;;;3.67;;
15871;SDS011;8035;51.962;7.162;2023-03-23T04:07:06;3.53;;;3.23;;
15871;SDS011;8035;51.962;7.162;2023-03-23T04:09:35;4.17;;;3.30;;
15871;SDS011;8035;51.962;7.162;2023-03-23T04:12:02;4.73;;;3.60;;
15871;SDS011;8035;51.962;7.162;2023-03-23T04:14:28;6.10;;;3.33;;
15871;SDS011;8035;51.962;7.162;2023-03-23T04:16:54;5.47;;;3.40;;
15871;SDS011;8035;51.962;7.162;2023-03-23T04:19:22;5.53;;;3.73;;
15871;SDS011;8035;51.962;7.162;2023-03-23T04:21:49;6.20;;;3.60;;
15871;SDS011;8035;51.962;7.162;2023-03-23T04:24:15;5.20;;;3.40;;
15871;SDS011;8035;51.962;7.162;2023-03-23T04:26:41;4.37;;;3.40;;
15871;SDS011;8035;51.962;7.162;2023-03-23T04:29:10;5.67;;;3.70;;
15871;SDS011;8035;51.962;7.162;2023-03-23T04:31:55;5.77;;;3.57;;
15871;SDS011;8035;51.962;7.162;2023-03-23T04:34:21;4.23;;;3.60;;
15871;SDS011;8035;51.962;7.162;2023-03-23T04:36:48;4.63;;;3.43;;
15871;SDS011;8035;51.962;7.162;2023-03-23T04:39:14;4.07;;;3.47;;
15871;SDS011;8035;51.962;7.162;2023-03-23T04:41:40;3.87;;;3.17;;
15871;SDS011;8035;51.962;7.162;2023-03-23T04:44:07;7.07;;;3.73;;
15871;SDS011;8035;51.962;7.162;2023-03-23T04:46:33;4.17;;;3.27;;
15871;SDS011;8035;51.962;7.162;2023-03-23T04:48:59;4.93;;;3.13;;
15871;SDS011;8035;51.962;7.162;2023-03-23T04:51:28;4.63;;;3.47;;
15871;SDS011;8035;51.962;7.162;2023-03-23T04:53:54;3.70;;;3.30;;
15871;SDS011;8035;51.962;7.162;2023-03-23T04:56:21;5.50;;;3.33;;
15871;SDS011;8035;51.962;7.162;2023-03-23T04:58:47;3.80;;;3.40;;
15871;SDS011;8035;51.962;7.162;2023-03-23T05:01:13;5.57;;;3.30;;
15871;SDS011;8035;51.962;7.162;2023-03-23T05:03:40;4.07;;;3.33;;
15871;SDS011;8035;51.962;7.162;2023-03-23T05:06:06;4.17;;;3.77;;
15871;SDS011;8035;51.962;7.162;2023-03-23T05:08:32;6.70;;;3.90;;
15871;SDS011;8035;51.962;7.162;2023-03-23T05:10:59;4.37;;;3.50;;
15871;SDS011;8035;51.962;7.162;2023-03-23T05:13:26;4.50;;;3.77;;
15871;SDS011;8035;51.962;7.162;2023-03-23T05:15:53;5.27;;;3.10;;
15871;SDS011;8035;51.962;7.162;2023-03-23T05:18:19;5.70;;;3.17;;
15871;SDS011;8035;51.962;7.162;2023-03-23T05:20:45;4.53;;;3.37;;
15871;SDS011;8035;51.962;7.162;2023-03-23T05:23:12;4.50;;;3.30;;
15871;SDS011;8035;51.962;7.162;2023-03-23T05:25:38;4.70;;;3.00;;
15871;SDS011;8035;51.962;7.162;2023-03-23T05:28:08;7.27;;;2.70;;
15871;SDS011;8035;51.962;7.162;2023-03-23T05:30:36;3.30;;;2.87;;
15871;SDS011;8035;51.962;7.162;2023-03-23T05:33:03;7.13;;;3.20;;
15871;SDS011;8035;51.962;7.162;2023-03-23T05:35:29;3.10;;;2.80;;
15871;SDS011;8035;51.962;7.162;2023-03-23T05:37:55;2.90;;;2.63;;
15871;SDS011;8035;51.962;7.162;2023-03-23T05:40:25;4.27;;;2.63;;
15871;SDS011;8035;51.962;7.162;2023-03-23T05:42:52;5.57;;;3.13;;
15871;SDS011;8035;51.962;7.162;2023-03-23T05:45:20;4.10;;;2.73;;
15871;SDS011;8035;51.962;7.162;2023-03-23T05:47:47;4.53;;;2.60;;
15871;SDS011;8035;51.962;7.162;2023-03-23T05:50:13;3.63;;;3.03;;
15871;SDS011;8035;51.962;7.162;2023-03-23T05:52:40;2.97;;;2.67;;
15871;SDS011;8035;51.962;7.162;2023-03-23T05:55:06;4.67;;;2.60;;
15871;SDS011;8035;51.962;7.162;2023-03-23T05:57:33;4.10;;;2.63;;
15871;SDS011;8035;51.962;7.162;2023-03-23T05:59:59;4.80;;;2.90;;
15871;SDS011;8035;51.962;7.162;2023-03-23T06:02:31;3.17;;;2.50;;
15871;SDS011;8035;51.962;7.162;2023-03-23T06:04:57;4.60;;;2.60;;
15871;SDS011;8035;51.962;7.162;2023-03-23T06:07:24;5.83;;;2.67;;
15871;SDS011;8035;51.962;7.162;2023-03-23T06:09:50;3.87;;;2.73;;
15871;SDS011;8035;51.962;7.162;2023-03-23T06:12:16;3.17;;;2.53;;
15871;SDS011;8035;51.962;7.162;2023-03-23T06:14:46;3.73;;;2.80;;
15871;SDS011;8035;51.962;7.162;2023-03-23T06:17:13;5.70;;;2.83;;
15871;SDS011;8035;51.962;7.162;2023-03-23T06:19:40;3.43;;;2.57;;
15871;SDS011;8035;51.962;7.162;2023-03-23T06:22:06;5.67;;;2.37;;
15871;SDS011;8035;51.962;7.162;2023-03-23T06:24:32;4.40;;;2.70;;
15871;SDS011;8035;51.962;7.162;2023-03-23T06:26:59;3.30;;;2.30;;
15871;SDS011;8035;51.962;7.162;2023-03-23T06:29:26;5.60;;;2.87;;
15871;SDS011;8035;51.962;7.162;2023-03-23T06:31:53;3.93;;;2.73;;
15871;SDS011;8035;51.962;7.162;2023-03-23T06:34:20;3.70;;;3.00;;
15871;SDS011;8035;51.962;7.162;2023-03-23T06:36:46;5.57;;;2.63;;
15871;SDS011;8035;51.962;7.162;2023-03-23T06:39:12;3.60;;;2.30;;
15871;SDS011;8035;51.962;7.162;2023-03-23T06:41:38;4.10;;;2.50;;
15871;SDS011;8035;51.962;7.162;2023-03-23T06:44:05;4.60;;;3.20;;
15871;SDS011;8035;51.962;7.162;2023-03-23T06:46:31;4.97;;;2.70;;
15871;SDS011;8035;51.962;7.162;2023-03-23T06:48:57;4.63;;;2.37;;
15871;SDS011;8035;51.962;7.162;2023-03-23T06:51:23;4.33;;;2.93;;
15871;SDS011;8035;51.962;7.162;2023-03-23T06:53:50;5.33;;;2.37;;
15871;SDS011;8035;51.962;7.162;2023-03-23T06:56:16;5.43;;;2.63;;
15871;SDS011;8035;51.962;7.162;2023-03-23T06:58:42;6.13;;;2.50;;
15871;SDS011;8035;51.962;7.162;2023-03-23T07:01:10;4.13;;;2.23;;
15871;SDS011;8035;51.962;7.162;2023-03-23T07:03:37;4.87;;;2.50;;
15871;SDS011;8035;51.962;7.162;2023-03-23T07:06:05;4.80;;;2.60;;
15871;SDS011;8035;51.962;7.162;2023-03-23T07:08:32;2.40;;;2.10;;
15871;SDS011;8035;51.962;7.162;2023-03-23T07:10:58;3.63;;;2.47;;
15871;SDS011;8035;51.962;7.162;2023-03-23T07:13:24;5.13;;;2.63;;
15871;SDS011;8035;51.962;7.162;2023-03-23T07:15:50;4.27;;;2.63;;
15871;SDS011;8035;51.962;7.162;2023-03-23T07:18:17;3.10;;;2.20;;
15871;SDS011;8035;51.962;7.162;2023-03-23T07:20:46;3.00;;;2.20;;
15871;SDS011;8035;51.962;7.162;2023-03-23T07:23:12;2.60;;;2.10;;
15871;SDS011;8035;51.962;7.162;2023-03-23T07:25:38;7.47;;;2.53;;
15871;SDS011;8035;51.962;7.162;2023-03-23T07:28:05;5.17;;;2.50;;
15871;SDS011;8035;51.962;7.162;2023-03-23T07:30:31;5.53;;;2.07;;
15871;SDS011;8035;51.962;7.162;2023-03-23T07:32:57;4.03;;;2.13;;
15871;SDS011;8035;51.962;7.162;2023-03-23T07:35:24;4.00;;;2.13;;
15871;SDS011;8035;51.962;7.162;2023-03-23T07:37:50;4.37;;;2.43;;
15871;SDS011;8035;51.962;7.162;2023-03-23T07:40:17;6.00;;;2.27;;
15871;SDS011;8035;51.962;7.162;2023-03-23T07:42:44;3.50;;;2.20;;
15871;SDS011;8035;51.962;7.162;2023-03-23T07:45:11;4.67;;;2.17;;
15871;SDS011;8035;51.962;7.162;2023-03-23T07:47:38;4.33;;;1.93;;
15871;SDS011;8035;51.962;7.162;2023-03-23T07:50:04;4.40;;;2.43;;
15871;SDS011;8035;51.962;7.162;2023-03-23T07:52:31;6.87;;;2.60;;
15871;SDS011;8035;51.962;7.162;2023-03-23T07:55:16;5.30;;;2.43;;
15871;SDS011;8035;51.962;7.162;2023-03-23T07:57:43;3.63;;;2.43;;
15871;SDS011;8035;51.962;7.162;2023-03-23T08:00:09;5.00;;;2.07;;
15871;SDS011;8035;51.962;7.162;2023-03-23T08:02:37;5.53;;;2.23;;
15871;SDS011;8035;51.962;7.162;2023-03-23T08:05:04;5.07;;;2.00;;
15871;SDS011;8035;51.962;7.162;2023-03-23T08:07:30;4.43;;;2.50;;
15871;SDS011;8035;51.962;7.162;2023-03-23T08:09:56;5.10;;;2.17;;
15871;SDS011;8035;51.962;7.162;2023-03-23T08:12:22;3.10;;;2.10;;
15871;SDS011;8035;51.962;7.162;2023-03-23T08:14:48;5.00;;;2.63;;
15871;SDS011;8035;51.962;7.162;2023-03-23T08:17:14;4.60;;;2.23;;
15871;SDS011;8035;51.962;7.162;2023-03-23T08:19:40;5.97;;;2.27;;
15871;SDS011;8035;51.962;7.162;2023-03-23T08:22:08;5.87;;;2.30;;
15871;SDS011;8035;51.962;7.162;2023-03-23T08:24:34;4.03;;;1.97;;
15871;SDS011;8035;51.962;7.162;2023-03-23T08:27:00;4.60;;;2.30;;
15871;SDS011;8035;51.962;7.162;2023-03-23T08:29:26;4.17;;;1.90;;
15871;SDS011;8035;51.962;7.162;2023-03-23T08:31:53;4.83;;;2.17;;
15871;SDS011;8035;51.962;7.162;2023-03-23T08:34:19;3.83;;;1.93;;
15871;SDS011;8035;51.962;7.162;2023-03-23T08:36:46;5.20;;;2.40;;
15871;SDS011;8035;51.962;7.162;2023-03-23T08:39:13;4.87;;;2.50;;
15871;SDS011;8035;51.962;7.162;2023-03-23T08:41:43;5.73;;;2.67;;
15871;SDS011;8035;51.962;7.162;2023-03-23T08:44:09;4.87;;;2.13;;
15871;SDS011;8035;51.962;7.162;2023-03-23T08:46:35;3.03;;;2.13;;
15871;SDS011;8035;51.962;7.162;2023-03-23T08:49:01;5.03;;;2.00;;
15871;SDS011;8035;51.962;7.162;2023-03-23T08:51:27;4.80;;;2.33;;
15871;SDS011;8035;51.962;7.162;2023-03-23T08:53:53;3.03;;;2.10;;
15871;SDS011;8035;51.962;7.162;2023-03-23T08:56:19;4.73;;;2.40;;
15871;SDS011;8035;51.962;7.162;2023-03-23T08:58:47;3.27;;;2.27;;
15871;SDS011;8035;51.962;7.162;2023-03-23T09:01:14;4.63;;;2.10;;
15871;SDS011;8035;51.962;7.162;2023-03-23T09:03:40;3.80;;;2.30;;
15871;SDS011;8035;51.962;7.162;2023-03-23T09:06:06;3.30;;;2.00;;
15871;SDS011;8035;51.962;7.162;2023-03-23T09:08:33;4.07;;;1.60;;
15871;SDS011;8035;51.962;7.162;2023-03-23T09:11:04;6.40;;;1.50;;
15871;SDS011;8035;51.962;7.162;2023-03-23T09:13:31;1.53;;;0.80;;
15871;SDS011;8035;51.962;7.162;2023-03-23T09:15:57;3.70;;;0.93;;
15871;SDS011;8035;51.962;7.162;2023-03-23T09:18:23;2.50;;;0.90;;
15871;SDS011;8035;51.962;7.162;2023-03-23T09:20:50;3.13;;;1.10;;
15871;SDS011;8035;51.962;7.162;2023-03-23T09:23:16;3.17;;;1.10;;
15871;SDS011;8035;51.962;7.162;2023-03-23T09:25:42;3.60;;;0.97;;
15871;SDS011;8035;51.962;7.162;2023-03-23T09:28:08;1.90;;;0.93;;
15871;SDS011;8035;51.962;7.162;2023-03-23T09:30:35;1.57;;;1.27;;
15871;SDS011;8035;51.962;7.162;2023-03-23T09:33:03;2.40;;;0.80;;
15871;SDS011;8035;51.962;7.162;2023-03-23T09:35:29;1.43;;;0.97;;
15871;SDS011;8035;51.962;7.162;2023-03-23T09:37:56;1.80;;;0.80;;
15871;SDS011;8035;51.962;7.162;2023-03-23T09:40:26;1.40;;;1.00;;
15871;SDS011;8035;51.962;7.162;2023-03-23T09:43:37;2.77;;;0.90;;
15871;SDS011;8035;51.962;7.162;2023-03-23T09:45:47;1.77;;;0.80;;
15871;SDS011;8035;51.962;7.162;2023-03-23T09:53:36;1.23;;;0.70;;
15871;SDS011;8035;51.962;7.162;2023-03-23T09:56:05;1.13;;;0.80;;
15871;SDS011;8035;51.962;7.162;2023-03-23T09:58:45;2.27;;;1.40;;
15871;SDS011;8035;51.962;7.162;2023-03-23T10:06:44;1.00;;;0.80;;
15871;SDS011;8035;51.962;7.162;2023-03-23T10:09:13;2.30;;;0.90;;
15871;SDS011;8035;51.962;7.162;2023-03-23T10:11:47;1.83;;;1.00;;
15871;SDS011;8035;51.962;7.162;2023-03-23T10:17:03;1.17;;;0.90;;
15871;SDS011;8035;51.962;7.162;2023-03-23T10:19:33;1.43;;;0.90;;
15871;SDS011;8035;51.962;7.162;2023-03-23T10:22:04;1.30;;;1.00;;
15871;SDS011;8035;51.962;7.162;2023-03-23T10:24:35;2.23;;;0.80;;
15871;SDS011;8035;51.962;7.162;2023-03-23T10:29:33;2.43;;;1.00;;
15871;SDS011;8035;51.962;7.162;2023-03-23T10:32:03;2.50;;;1.10;;
15871;SDS011;8035;51.962;7.162;2023-03-23T10:34:35;1.83;;;0.90;;
15871;SDS011;8035;51.962;7.162;2023-03-23T10:37:17;4.63;;;1.57;;
15871;SDS011;8035;51.962;7.162;2023-03-23T10:39:52;4.30;;;1.30;;
15871;SDS011;8035;51.962;7.162;2023-03-23T10:44:52;3.73;;;1.20;;
15871;SDS011;8035;51.962;7.162;2023-03-23T10:47:19;2.67;;;1.20;;
15871;SDS011;8035;51.962;7.162;2023-03-23T10:49:49;4.40;;;1.40;;
15871;SDS011;8035;51.962;7.162;2023-03-23T10:54:57;2.63;;;1.20;;
15871;SDS011;8035;51.962;7.162;2023-03-23T10:57:26;2.73;;;1.23;;
15871;SDS011;8035;51.962;7.162;2023-03-23T11:00:07;2.90;;;1.63;;
15871;SDS011;8035;51.962;7.162;2023-03-23T11:05:19;1.43;;;1.00;;
15871;SDS011;8035;51.962;7.162;2023-03-23T11:07:56;3.53;;;1.27;;
15871;SDS011;8035;51.962;7.162;2023-03-23T11:10:25;1.63;;;1.33;;
15871;SDS011;8035;51.962;7.162;2023-03-23T11:12:51;4.33;;;1.00;;
15871;SDS011;8035;51.962;7.162;2023-03-23T11:15:37;1.53;;;1.10;;
15871;SDS011;8035;51.962;7.162;2023-03-23T11:18:11;1.70;;;1.20;;
15871;SDS011;8035;51.962;7.162;2023-03-23T11:20:39;4.73;;;1.13;;
15871;SDS011;8035;51.962;7.162;2023-03-23T11:25:50;3.87;;;1.10;;
15871;SDS011;8035;51.962;7.162;2023-03-23T11:28:17;4.00;;;1.20;;
15871;SDS011;8035;51.962;7.162;2023-03-23T11:30:43;3.13;;;1.10;;
15871;SDS011;8035;51.962;7.162;2023-03-23T11:33:09;3.33;;;1.10;;
15871;SDS011;8035;51.962;7.162;2023-03-23T11:35:36;2.37;;;1.00;;
15871;SDS011;8035;51.962;7.162;2023-03-23T11:38:02;2.27;;;1.13;;
15871;SDS011;8035;51.962;7.162;2023-03-23T11:40:31;1.40;;;0.90;;
15871;SDS011;8035;51.962;7.162;2023-03-23T11:43:07;1.33;;;1.00;;
15871;SDS011;8035;51.962;7.162;2023-03-23T11:50:28;3.33;;;0.93;;
15871;SDS011;8035;51.962;7.162;2023-03-23T11:53:00;3.50;;;0.97;;
15871;SDS011;8035;51.962;7.162;2023-03-23T11:55:30;2.20;;;1.53;;
15871;SDS011;8035;51.962;7.162;2023-03-23T11:58:00;1.97;;;1.00;;
15871;SDS011;8035;51.962;7.162;2023-03-23T12:00:27;1.90;;;1.40;;
15871;SDS011;8035;51.962;7.162;2023-03-23T12:15:45;2.47;;;1.43;;
15871;SDS011;8035;51.962;7.162;2023-03-23T12:21:05;5.77;;;2.63;;
15871;SDS011;8035;51.962;7.162;2023-03-23T12:23:42;2.37;;;1.27;;
15871;SDS011;8035;51.962;7.162;2023-03-23T12:41:35;1.67;;;1.10;;
15871;SDS011;8035;51.962;7.162;2023-03-23T12:53:56;4.73;;;1.30;;
15871;SDS011;8035;51.962;7.162;2023-03-23T12:56:38;3.53;;;1.40;;
15871;SDS011;8035;51.962;7.162;2023-03-23T13:01:44;3.13;;;1.63;;
15871;SDS011;8035;51.962;7.162;2023-03-23T13:04:12;1.83;;;1.30;;
15871;SDS011;8035;51.962;7.162;2023-03-23T13:11:37;2.30;;;1.30;;
15871;SDS011;8035;51.962;7.162;2023-03-23T13:22:13;1.90;;;1.20;;
15871;SDS011;8035;51.962;7.162;2023-03-23T13:24:23;2.17;;;1.10;;
15871;SDS011;8035;51.962;7.162;2023-03-23T13:26:50;1.90;;;1.00;;
15871;SDS011;8035;51.962;7.162;2023-03-23T13:29:20;1.90;;;1.33;;
15871;SDS011;8035;51.962;7.162;2023-03-23T13:31:52;2.77;;;1.50;;
15871;SDS011;8035;51.962;7.162;2023-03-23T13:34:19;2.07;;;1.30;;
15871;SDS011;8035;51.962;7.162;2023-03-23T13:36:56;2.30;;;1.20;;
15871;SDS011;8035;51.962;7.162;2023-03-23T13:44:38;2.77;;;1.57;;
15871;SDS011;8035;51.962;7.162;2023-03-23T13:49:49;2.63;;;1.50;;
15871;SDS011;8035;51.962;7.162;2023-03-23T13:53:11;2.73;;;1.53;;
15871;SDS011;8035;51.962;7.162;2023-03-23T13:55:16;3.73;;;1.40;;
15871;SDS011;8035;51.962;7.162;2023-03-23T13:57:56;4.23;;;1.53;;
15871;SDS011;8035;51.962;7.162;2023-03-23T14:02:58;4.63;;;1.60;;
15871;SDS011;8035;51.962;7.162;2023-03-23T14:07:56;3.37;;;1.70;;
15871;SDS011;8035;51.962;7.162;2023-03-23T14:10:25;3.37;;;1.63;;
15871;SDS011;8035;51.962;7.162;2023-03-23T14:12:52;3.13;;;1.50;;
15871;SDS011;8035;51.962;7.162;2023-03-23T14:15:19;3.07;;;1.60;;
15871;SDS011;8035;51.962;7.162;2023-03-23T14:17:45;3.73;;;1.90;;
15871;SDS011;8035;51.962;7.162;2023-03-23T14:20:30;2.77;;;1.77;;
15871;SDS011;8035;51.962;7.162;2023-03-23T14:22:58;2.07;;;1.80;;
15871;SDS011;8035;51.962;7.162;2023-03-23T14:25:26;3.27;;;1.60;;
15871;SDS011;8035;51.962;7.162;2023-03-23T14:27:52;3.77;;;2.10;;
15871;SDS011;8035;51.962;7.162;2023-03-23T14:30:20;3.57;;;2.40;;
15871;SDS011;8035;51.962;7.162;2023-03-23T14:32:46;1.90;;;1.70;;
15871;SDS011;8035;51.962;7.162;2023-03-23T14:37:43;3.40;;;1.97;;
15871;SDS011;8035;51.962;7.162;2023-03-23T14:40:12;3.70;;;2.53;;
15871;SDS011;8035;51.962;7.162;2023-03-23T14:42:39;2.70;;;2.00;;
15871;SDS011;8035;51.962;7.162;2023-03-23T14:45:05;3.87;;;2.30;;
15871;SDS011;8035;51.962;7.162;2023-03-23T14:47:35;3.10;;;1.87;;
15871;SDS011;8035;51.962;7.162;2023-03-23T14:50:04;3.27;;;2.00;;
15871;SDS011;8035;51.962;7.162;2023-03-23T14:52:35;3.63;;;2.33;;
15871;SDS011;8035;51.962;7.162;2023-03-23T14:55:10;4.07;;;2.20;;
15871;SDS011;8035;51.962;7.162;2023-03-23T14:57:39;4.73;;;2.20;;
15871;SDS011;8035;51.962;7.162;2023-03-23T15:00:10;4.23;;;2.43;;
15871;SDS011;8035;51.962;7.162;2023-03-23T15:02:37;4.23;;;2.43;;
15871;SDS011;8035;51.962;7.162;2023-03-23T15:05:10;4.70;;;2.13;;
15871;SDS011;8035;51.962;7.162;2023-03-23T15:07:37;3.00;;;2.17;;
15871;SDS011;8035;51.962;7.162;2023-03-23T15:10:12;5.77;;;2.07;;
15871;SDS011;8035;51.962;7.162;2023-03-23T15:12:40;4.00;;;2.30;;
15871;SDS011;8035;51.962;7.162;2023-03-23T15:15:16;4.27;;;1.90;;
15871;SDS011;8035;51.962;7.162;2023-03-23T15:17:46;6.43;;;2.67;;
15871;SDS011;8035;51.962;7.162;2023-03-23T15:20:23;6.33;;;2.67;;
15871;SDS011;8035;51.962;7.162;2023-03-23T15:22:50;5.83;;;2.30;;
15871;SDS011;8035;51.962;7.162;2023-03-23T15:27:52;6.70;;;2.33;;
15871;SDS011;8035;51.962;7.162;2023-03-23T15:32:49;4.60;;;2.13;;
15871;SDS011;8035;51.962;7.162;2023-03-23T15:35:17;4.77;;;2.40;;
15871;SDS011;8035;51.962;7.162;2023-03-23T15:37:52;6.30;;;3.00;;
15871;SDS011;8035;51.962;7.162;2023-03-23T15:40:37;6.80;;;2.17;;
15871;SDS011;8035;51.962;7.162;2023-03-23T15:43:18;4.10;;;2.43;;
15871;SDS011;8035;51.962;7.162;2023-03-23T15:48:21;3.47;;;2.27;;
15871;SDS011;8035;51.962;7.162;2023-03-23T15:50:47;6.07;;;2.40;;
15871;SDS011;8035;51.962;7.162;2023-03-23T15:53:31;5.13;;;2.67;;
15871;SDS011;8035;51.962;7.162;2023-03-23T15:56:01;7.03;;;2.77;;
15871;SDS011;8035;51.962;7.162;2023-03-23T15:58:28;3.03;;;2.43;;
15871;SDS011;8035;51.962;7.162;2023-03-23T16:00:54;4.60;;;2.67;;
15871;SDS011;8035;51.962;7.162;2023-03-23T16:03:22;3.83;;;2.17;;
15871;SDS011;8035;51.962;7.162;2023-03-23T16:05:55;4.67;;;3.00;;
15871;SDS011;8035;51.962;7.162;2023-03-23T16:08:23;5.13;;;2.87;;
15871;SDS011;8035;51.962;7.162;2023-03-23T16:10:49;5.67;;;3.20;;
15871;SDS011;8035;51.962;7.162;2023-03-23T16:13:15;3.77;;;3.27;;
15871;SDS011;8035;51.962;7.162;2023-03-23T16:15:42;5.43;;;3.10;;
15871;SDS011;8035;51.962;7.162;2023-03-23T16:18:18;5.90;;;3.50;;
15871;SDS011;8035;51.962;7.162;2023-03-23T16:20:45;3.80;;;2.90;;
15871;SDS011;8035;51.962;7.162;2023-03-23T16:23:11;5.50;;;3.37;;
15871;SDS011;8035;51.962;7.162;2023-03-23T16:25:37;7.63;;;3.53;;
15871;SDS011;8035;51.962;7.162;2023-03-23T16:28:03;5.10;;;3.30;;
15871;SDS011;8035;51.962;7.162;2023-03-23T16:30:32;9.10;;;3.40;;
15871;SDS011;8035;51.962;7.162;2023-03-23T16:32:58;4.37;;;3.87;;
15871;SDS011;8035;51.962;7.162;2023-03-23T16:35:25;6.50;;;3.87;;
15871;SDS011;8035;51.962;7.162;2023-03-23T16:37:52;6.23;;;4.00;;
15871;SDS011;8035;51.962;7.162;2023-03-23T16:40:19;6.97;;;4.00;;
15871;SDS011;8035;51.962;7.162;2023-03-23T16:42:45;6.80;;;4.03;;
15871;SDS011;8035;51.962;7.162;2023-03-23T16:45:12;5.83;;;3.97;;
15871;SDS011;8035;51.962;7.162;2023-03-23T16:47:38;7.63;;;3.77;;
15871;SDS011;8035;51.962;7.162;2023-03-23T16:50:05;5.60;;;3.50;;
15871;SDS011;8035;51.962;7.162;2023-03-23T16:52:32;6.17;;;3.40;;
15871;SDS011;8035;51.962;7.162;2023-03-23T16:54:58;4.07;;;3.47;;
15871;SDS011;8035;51.962;7.162;2023-03-23T16:57:24;7.63;;;3.43;;
15871;SDS011;8035;51.962;7.162;2023-03-23T16:59:51;4.47;;;3.50;;
15871;SDS011;8035;51.962;7.162;2023-03-23T17:02:17;4.53;;;3.60;;
15871;SDS011;8035;51.962;7.162;2023-03-23T17:04:43;7.37;;;3.67;;
15871;SDS011;8035;51.962;7.162;2023-03-23T17:07:10;4.53;;;3.50;;
15871;SDS011;8035;51.962;7.162;2023-03-23T17:09:36;3.00;;;2.70;;
15871;SDS011;8035;51.962;7.162;2023-03-23T17:12:02;3.87;;;2.87;;
15871;SDS011;8035;51.962;7.162;2023-03-23T17:14:28;3.53;;;2.70;;
15871;SDS011;8035;51.962;7.162;2023-03-23T17:16:54;4.60;;;3.00;;